createdAt,value
2023-05-19T00:01:44.174Z,15.49
2023-05-19T00:04:15.357Z,15.53
2023-05-19T00:06:51.101Z,15.56
2023-05-19T00:09:20.827Z,15.59
2023-05-19T00:11:50.920Z,15.61
2023-05-19T00:14:21.093Z,15.62
2023-05-19T00:16:51.001Z,15.63
2023-05-19T00:19:20.328Z,15.63
2023-05-19T00:21:49.717Z,15.63
2023-05-19T00:24:18.952Z,15.62
2023-05-19T00:26:48.409Z,15.62
2023-05-19T00:29:19.397Z,15.62
2023-05-19T00:31:48.936Z,15.63
2023-05-19T00:34:18.260Z,15.64
2023-05-19T00:36:47.455Z,15.65
2023-05-19T00:39:17.688Z,15.67
2023-05-19T00:41:47.063Z,15.70
2023-05-19T00:44:16.591Z,15.70
2023-05-19T00:46:46.220Z,15.71
2023-05-19T00:49:16.255Z,15.73
2023-05-19T00:51:46.443Z,15.74
2023-05-19T00:54:16.883Z,15.75
2023-05-19T00:56:46.269Z,15.76
2023-05-19T00:59:16.900Z,15.79
2023-05-19T01:01:49.107Z,15.80
2023-05-19T01:04:22.360Z,15.81
2023-05-19T01:06:55.543Z,15.82
2023-05-19T01:09:24.950Z,15.83
2023-05-19T01:11:54.459Z,15.83
2023-05-19T01:14:24.178Z,15.82
2023-05-19T01:17:05.858Z,15.81
2023-05-19T01:19:56.423Z,15.79
2023-05-19T01:22:44.441Z,15.77
2023-05-19T01:25:44.836Z,15.72
2023-05-19T01:28:35.026Z,15.66
2023-05-19T01:31:07.577Z,15.58
2023-05-19T01:33:39.614Z,15.50
2023-05-19T01:36:11.974Z,15.42
2023-05-19T01:38:43.510Z,15.35
2023-05-19T01:41:14.431Z,15.28
2023-05-19T01:43:44.800Z,15.21
2023-05-19T01:46:15.354Z,15.14
2023-05-19T01:48:45.922Z,15.07
2023-05-19T01:51:16.090Z,15.00
2023-05-19T01:53:45.653Z,14.92
2023-05-19T01:56:24.084Z,14.84
2023-05-19T01:59:04.655Z,14.78
2023-05-19T02:01:57.398Z,14.72
2023-05-19T02:04:49.554Z,14.67
2023-05-19T02:07:42.729Z,14.62
2023-05-19T02:10:23.244Z,14.56
2023-05-19T02:12:54.503Z,14.54
2023-05-19T02:15:35.676Z,14.52
2023-05-19T02:18:06.535Z,14.52
2023-05-19T02:20:35.898Z,14.52
2023-05-19T02:23:05.603Z,14.52
2023-05-19T02:25:35.228Z,14.53
2023-05-19T02:28:04.933Z,14.54
2023-05-19T02:30:34.437Z,14.54
2023-05-19T02:33:06.595Z,14.55
2023-05-19T02:35:36.232Z,14.56
2023-05-19T02:38:05.374Z,14.56
2023-05-19T02:40:34.718Z,14.55
2023-05-19T02:43:04.286Z,14.52
2023-05-19T02:45:33.620Z,14.48
2023-05-19T02:48:03.520Z,14.43
2023-05-19T02:50:33.188Z,14.36
2023-05-19T02:53:02.974Z,14.30
2023-05-19T02:55:32.360Z,14.24
2023-05-19T02:58:01.981Z,14.18
2023-05-19T03:00:31.677Z,14.11
2023-05-19T03:03:03.094Z,14.04
2023-05-19T03:05:32.839Z,13.97
2023-05-19T03:08:02.314Z,13.91
2023-05-19T03:10:31.793Z,13.86
2023-05-19T03:13:01.515Z,13.80
2023-05-19T03:15:31.167Z,13.77
2023-05-19T03:18:00.307Z,13.74
2023-05-19T03:20:30.729Z,13.72
2023-05-19T03:23:01.647Z,13.73
2023-05-19T03:25:31.543Z,13.74
2023-05-19T03:28:01.723Z,13.77
2023-05-19T03:30:31.419Z,13.82
2023-05-19T03:33:12.416Z,13.89
2023-05-19T03:35:42.394Z,13.97
2023-05-19T03:38:12.117Z,14.08
2023-05-19T03:40:43.433Z,14.21
2023-05-19T03:43:13.372Z,14.34
2023-05-19T03:45:48.636Z,14.50
2023-05-19T03:48:52.295Z,14.72
2023-05-19T03:51:30.409Z,15.00
2023-05-19T03:54:06.417Z,15.41
2023-05-19T03:56:43.088Z,15.83
2023-05-19T03:59:12.642Z,16.26
2023-05-19T04:01:42.259Z,16.64
2023-05-19T04:04:11.644Z,16.99
2023-05-19T04:06:41.056Z,17.29
2023-05-19T04:09:16.161Z,17.63
2023-05-19T04:11:46.309Z,18.04
2023-05-19T04:14:16.177Z,18.47
2023-05-19T04:16:46.051Z,18.90
2023-05-19T04:19:15.333Z,19.34
2023-05-19T04:21:44.952Z,19.77
2023-05-19T04:24:14.128Z,20.20
2023-05-19T04:26:47.379Z,20.57
2023-05-19T04:29:19.301Z,20.93
2023-05-19T04:31:49.648Z,21.18
2023-05-19T04:34:20.155Z,21.42
2023-05-19T04:36:52.476Z,21.57
2023-05-19T04:39:24.388Z,21.68
2023-05-19T04:41:54.425Z,21.93
2023-05-19T04:44:23.624Z,22.04
2023-05-19T04:46:54.718Z,22.19
2023-05-19T04:49:24.662Z,22.38
2023-05-19T04:51:55.915Z,22.58
2023-05-19T04:54:28.646Z,22.86
2023-05-19T04:56:58.315Z,23.09
2023-05-19T04:59:28.865Z,23.24
2023-05-19T05:01:58.421Z,23.41
2023-05-19T05:04:28.672Z,23.77
2023-05-19T05:06:58.157Z,24.10
2023-05-19T05:09:27.872Z,24.01
2023-05-19T05:11:58.336Z,23.79
2023-05-19T05:14:28.420Z,23.72
2023-05-19T05:16:58.730Z,23.88
2023-05-19T05:19:29.023Z,24.01
2023-05-19T05:21:59.164Z,24.18
2023-05-19T05:24:29.230Z,24.53
2023-05-19T05:27:01.544Z,24.78
2023-05-19T05:29:31.499Z,24.86
2023-05-19T05:32:01.037Z,24.98
2023-05-19T05:34:30.625Z,25.45
2023-05-19T05:37:00.018Z,25.74
2023-05-19T05:39:31.991Z,25.75
2023-05-19T05:42:02.521Z,25.75
2023-05-19T05:44:32.439Z,25.82
2023-05-19T05:47:03.943Z,26.06
2023-05-19T05:49:36.726Z,26.08
2023-05-19T05:52:09.484Z,25.87
2023-05-19T05:54:44.594Z,25.84
2023-05-19T05:57:15.408Z,25.92
2023-05-19T05:59:47.376Z,26.05
2023-05-19T06:02:18.335Z,26.20
2023-05-19T06:04:48.122Z,26.48
2023-05-19T06:07:17.531Z,26.78
2023-05-19T06:09:47.336Z,27.07
2023-05-19T06:12:17.428Z,27.26
2023-05-19T06:14:50.367Z,27.40
2023-05-19T06:17:31.384Z,27.52
2023-05-19T06:20:00.557Z,27.78
2023-05-19T06:22:29.716Z,27.94
2023-05-19T06:24:59.296Z,28.00
2023-05-19T06:27:28.652Z,28.01
2023-05-19T06:29:57.946Z,28.19
2023-05-19T06:32:29.892Z,28.31
2023-05-19T06:35:00.207Z,28.56
2023-05-19T06:37:29.495Z,28.79
2023-05-19T06:39:59.542Z,28.81
2023-05-19T06:42:29.265Z,28.74
2023-05-19T06:45:00.965Z,28.71
2023-05-19T06:47:30.229Z,28.65
2023-05-19T06:49:59.496Z,28.86
2023-05-19T06:52:31.975Z,29.06
2023-05-19T06:55:03.043Z,28.88
2023-05-19T06:57:33.352Z,28.86
2023-05-19T07:00:04.508Z,29.15
2023-05-19T07:02:34.082Z,29.07
2023-05-19T07:05:08.256Z,28.85
2023-05-19T07:07:38.147Z,28.96
2023-05-19T07:10:09.724Z,29.20
2023-05-19T07:12:39.077Z,29.46
2023-05-19T07:15:09.738Z,29.68
2023-05-19T07:17:40.102Z,29.82
2023-05-19T07:20:11.002Z,30.06
2023-05-19T07:22:41.101Z,30.20
2023-05-19T07:25:10.700Z,30.47
2023-05-19T07:27:40.220Z,30.82
2023-05-19T07:30:10.468Z,30.91
2023-05-19T07:32:39.982Z,30.73
2023-05-19T07:35:10.216Z,30.28
2023-05-19T07:37:39.757Z,30.04
2023-05-19T07:40:10.079Z,30.04
2023-05-19T07:42:39.327Z,30.23
2023-05-19T07:45:09.713Z,30.20
2023-05-19T07:47:39.163Z,30.18
2023-05-19T07:50:09.147Z,30.15
2023-05-19T07:52:38.422Z,30.12
2023-05-19T07:55:07.599Z,30.00
2023-05-19T07:57:36.942Z,29.95
2023-05-19T08:00:10.166Z,29.99
2023-05-19T08:02:41.848Z,29.89
2023-05-19T08:05:11.819Z,29.67
2023-05-19T08:07:41.119Z,29.57
2023-05-19T08:10:10.922Z,29.73
2023-05-19T08:12:40.628Z,29.71
2023-05-19T08:15:13.613Z,29.64
2023-05-19T08:17:42.932Z,29.53
2023-05-19T08:20:12.835Z,29.28
2023-05-19T08:22:42.130Z,29.08
2023-05-19T08:25:11.947Z,28.89
2023-05-19T08:27:41.831Z,28.81
2023-05-19T08:30:12.093Z,28.69
2023-05-19T08:32:41.923Z,28.49
2023-05-19T08:35:11.526Z,28.23
2023-05-19T08:37:41.213Z,28.18
2023-05-19T08:40:17.429Z,28.14
2023-05-19T08:42:47.190Z,28.13
2023-05-19T08:45:17.205Z,28.15
2023-05-19T08:47:47.572Z,28.09
2023-05-19T08:50:25.045Z,27.97
2023-05-19T08:53:33.946Z,27.79
2023-05-19T08:56:20.117Z,27.59
2023-05-19T08:58:51.355Z,27.33
2023-05-19T09:01:22.797Z,27.21
2023-05-19T09:03:52.369Z,27.20
2023-05-19T09:06:21.673Z,27.21
2023-05-19T09:08:51.365Z,27.19
2023-05-19T09:11:22.764Z,27.19
2023-05-19T09:13:52.449Z,27.18
2023-05-19T09:16:22.293Z,27.28
2023-05-19T09:18:57.121Z,27.36
2023-05-19T09:21:33.335Z,27.52
2023-05-19T09:24:08.488Z,27.66
2023-05-19T09:26:43.080Z,27.76
2023-05-19T09:29:16.697Z,27.85
2023-05-19T09:31:54.497Z,27.97
2023-05-19T09:34:25.272Z,28.14
2023-05-19T09:36:54.937Z,28.23
2023-05-19T09:39:25.347Z,28.21
2023-05-19T09:41:56.322Z,28.11
2023-05-19T09:44:32.720Z,28.10
2023-05-19T09:47:02.487Z,28.08
2023-05-19T09:49:33.095Z,27.95
2023-05-19T09:52:04.266Z,27.87
2023-05-19T09:54:34.707Z,27.81
2023-05-19T09:57:08.333Z,27.86
2023-05-19T09:59:39.317Z,27.91
2023-05-19T10:02:17.630Z,28.04
2023-05-19T10:04:48.568Z,28.13
2023-05-19T10:07:21.381Z,28.11
2023-05-19T10:09:53.339Z,28.09
2023-05-19T10:12:24.489Z,28.03
2023-05-19T10:14:55.240Z,27.99
2023-05-19T10:17:26.345Z,27.91
2023-05-19T10:19:55.746Z,27.93
2023-05-19T10:22:25.054Z,27.97
2023-05-19T10:24:56.116Z,28.06
2023-05-19T10:27:28.361Z,28.28
2023-05-19T10:30:04.967Z,28.62
2023-05-19T10:32:34.847Z,28.98
2023-05-19T10:35:54.935Z,29.30
2023-05-19T10:38:59.171Z,29.70
2023-05-19T10:42:10.048Z,30.18
2023-05-19T10:45:19.078Z,30.65
2023-05-19T10:47:51.676Z,30.86
2023-05-19T10:50:21.251Z,30.44
2023-05-19T10:52:56.085Z,29.99
2023-05-19T10:56:04.352Z,29.60
2023-05-19T10:58:45.886Z,29.36
2023-05-19T11:01:18.068Z,29.45
2023-05-19T11:03:57.261Z,29.53
2023-05-19T11:06:36.338Z,29.72
2023-05-19T11:09:19.450Z,29.82
2023-05-19T11:11:54.329Z,29.93
2023-05-19T11:14:27.714Z,30.07
2023-05-19T11:16:59.026Z,30.25
2023-05-19T11:19:31.428Z,30.42
2023-05-19T11:22:11.346Z,30.59
2023-05-19T11:24:50.398Z,30.56
2023-05-19T11:27:31.638Z,30.58
2023-05-19T11:30:19.392Z,30.39
2023-05-19T11:32:48.918Z,30.24
2023-05-19T11:35:21.411Z,30.14
2023-05-19T11:37:54.379Z,29.83
2023-05-19T11:40:24.178Z,29.64
2023-05-19T11:42:53.573Z,29.68
2023-05-19T11:45:27.077Z,29.82
2023-05-19T11:48:02.747Z,29.78
2023-05-19T11:50:33.405Z,29.86
2023-05-19T11:53:03.073Z,29.95
2023-05-19T11:55:32.981Z,29.95
2023-05-19T11:58:05.828Z,30.08
2023-05-19T12:00:41.384Z,30.24
2023-05-19T12:03:10.920Z,30.29
2023-05-19T12:05:46.586Z,30.38
2023-05-19T12:08:20.301Z,30.38
2023-05-19T12:10:51.121Z,30.43
2023-05-19T12:13:21.117Z,30.63
2023-05-19T12:15:53.747Z,30.52
2023-05-19T12:18:23.410Z,30.10
2023-05-19T12:20:52.700Z,29.70
2023-05-19T12:23:22.946Z,29.34
2023-05-19T12:25:53.356Z,29.02
2023-05-19T12:28:22.688Z,28.72
2023-05-19T12:30:53.895Z,28.65
2023-05-19T12:33:24.493Z,28.89
2023-05-19T12:35:54.865Z,29.11
2023-05-19T12:38:24.294Z,29.17
2023-05-19T12:40:53.450Z,29.33
2023-05-19T12:43:23.504Z,29.57
2023-05-19T12:45:53.616Z,29.67
2023-05-19T12:48:23.122Z,29.66
2023-05-19T12:50:56.267Z,29.75
2023-05-19T12:53:28.281Z,29.88
2023-05-19T12:55:57.794Z,30.05
2023-05-19T12:58:27.073Z,30.16
2023-05-19T13:01:00.348Z,30.28
2023-05-19T13:03:29.825Z,30.40
2023-05-19T13:06:00.136Z,30.56
2023-05-19T13:08:29.998Z,30.73
2023-05-19T13:10:59.510Z,30.92
2023-05-19T13:13:29.121Z,31.10
2023-05-19T13:15:58.372Z,31.21
2023-05-19T13:18:27.974Z,31.22
2023-05-19T13:20:57.433Z,31.09
2023-05-19T13:23:26.735Z,30.86
2023-05-19T13:25:55.782Z,30.68
2023-05-19T13:28:25.330Z,30.66
2023-05-19T13:30:55.480Z,30.65
2023-05-19T13:33:24.860Z,30.65
2023-05-19T13:35:54.261Z,30.71
2023-05-19T13:38:23.562Z,30.68
2023-05-19T13:40:52.889Z,30.60
2023-05-19T13:43:22.159Z,30.55
2023-05-19T13:45:51.386Z,30.52
2023-05-19T13:48:20.805Z,30.65
2023-05-19T13:50:52.750Z,30.68
2023-05-19T13:53:22.132Z,30.69
2023-05-19T13:55:53.398Z,30.72
2023-05-19T13:58:22.591Z,30.60
2023-05-19T14:00:54.696Z,29.83
2023-05-19T14:03:25.292Z,28.66
2023-05-19T14:05:54.772Z,27.44
2023-05-19T14:08:24.183Z,26.43
2023-05-19T14:10:55.671Z,25.62
2023-05-19T14:13:33.349Z,24.92
2023-05-19T14:16:06.529Z,24.28
2023-05-19T14:18:35.858Z,23.79
2023-05-19T14:21:06.029Z,23.33
2023-05-19T14:23:36.063Z,22.88
2023-05-19T14:26:05.547Z,22.47
2023-05-19T14:28:34.775Z,22.08
2023-05-19T14:31:04.982Z,21.79
2023-05-19T14:33:35.687Z,21.56
2023-05-19T14:36:06.384Z,21.37
2023-05-19T14:38:36.388Z,21.19
2023-05-19T14:41:07.373Z,21.10
2023-05-19T14:43:36.581Z,21.03
2023-05-19T14:46:06.216Z,20.92
2023-05-19T14:48:36.050Z,20.81
2023-05-19T14:51:05.436Z,20.78
2023-05-19T14:53:35.166Z,20.79
2023-05-19T14:56:06.537Z,20.79
2023-05-19T14:58:36.429Z,20.83
2023-05-19T15:01:05.792Z,20.86
2023-05-19T15:03:35.256Z,20.84
2023-05-19T15:06:10.715Z,20.86
2023-05-19T15:08:41.318Z,20.89
2023-05-19T15:11:10.402Z,20.92
2023-05-19T15:13:40.008Z,20.93
2023-05-19T15:18:44.820Z,21.03
2023-05-19T15:21:14.097Z,21.10
2023-05-19T15:23:43.355Z,21.17
2023-05-19T15:26:13.383Z,21.19
2023-05-19T15:28:42.774Z,21.24
2023-05-19T15:31:12.366Z,21.31
2023-05-19T15:33:42.289Z,21.36
2023-05-19T15:36:16.611Z,21.41
2023-05-19T15:38:46.220Z,21.47
2023-05-19T15:41:15.436Z,21.53
2023-05-19T15:43:46.519Z,21.56
2023-05-19T15:46:16.393Z,21.53
2023-05-19T15:48:45.898Z,21.48
2023-05-19T15:51:16.128Z,21.41
2023-05-19T15:53:45.705Z,21.35
2023-05-19T15:56:15.106Z,21.32
2023-05-19T15:58:44.442Z,21.29
2023-05-19T16:01:15.290Z,21.28
2023-05-19T16:03:46.072Z,21.26
2023-05-19T16:06:15.695Z,21.24
2023-05-19T16:08:45.413Z,21.19
2023-05-19T16:11:14.746Z,21.15
2023-05-19T16:13:44.651Z,21.12
2023-05-19T16:16:16.557Z,21.10
2023-05-19T16:18:45.997Z,21.07
2023-05-19T16:21:15.503Z,21.04
2023-05-19T16:23:45.000Z,21.01
2023-05-19T16:26:14.710Z,20.95
2023-05-19T16:28:44.000Z,20.90
2023-05-19T16:31:13.326Z,20.85
2023-05-19T16:33:42.919Z,20.79
2023-05-19T16:36:12.537Z,20.74
2023-05-19T16:38:42.030Z,20.69
2023-05-19T16:41:12.288Z,20.68
2023-05-19T16:43:41.605Z,20.67
2023-05-19T16:46:12.470Z,20.66
2023-05-19T16:48:41.792Z,20.64
2023-05-19T16:51:11.091Z,20.63
2023-05-19T16:53:40.597Z,20.63
2023-05-19T16:56:09.734Z,20.64
2023-05-19T16:58:39.607Z,20.65
2023-05-19T17:01:10.759Z,20.66
2023-05-19T17:03:40.259Z,20.67
2023-05-19T17:06:09.881Z,20.69
2023-05-19T17:08:40.402Z,20.70
2023-05-19T17:11:09.690Z,20.71
2023-05-19T17:13:39.922Z,20.70
2023-05-19T17:16:09.318Z,20.69
2023-05-19T17:18:38.469Z,20.67
2023-05-19T17:21:08.123Z,20.64
2023-05-19T17:23:38.285Z,20.62
2023-05-19T17:26:07.970Z,20.60
2023-05-19T17:28:37.154Z,20.60
2023-05-19T17:31:15.397Z,20.60
2023-05-19T17:33:46.297Z,20.61
2023-05-19T17:36:16.023Z,20.62
2023-05-19T17:38:45.313Z,20.63
2023-05-19T17:41:14.636Z,20.63
2023-05-19T17:43:44.023Z,20.63
2023-05-19T17:46:13.478Z,20.63
2023-05-19T17:48:42.884Z,20.62
2023-05-19T17:51:12.537Z,20.61
2023-05-19T17:53:43.036Z,20.60
2023-05-19T17:56:13.141Z,20.61
2023-05-19T17:58:44.306Z,20.63
2023-05-19T18:01:14.957Z,20.63
2023-05-19T18:03:49.654Z,20.64
2023-05-19T18:06:20.625Z,20.64
2023-05-19T18:08:53.296Z,20.63
2023-05-19T18:11:23.319Z,20.62
2023-05-19T18:13:52.524Z,20.61
2023-05-19T18:16:21.705Z,20.59
2023-05-19T18:18:51.299Z,20.57
2023-05-19T18:21:20.604Z,20.54
2023-05-19T18:23:49.959Z,20.50
2023-05-19T18:26:19.437Z,20.46
2023-05-19T18:28:48.944Z,20.42
2023-05-19T18:31:20.211Z,20.38
2023-05-19T18:33:49.692Z,20.34
2023-05-19T18:36:19.413Z,20.29
2023-05-19T18:38:50.557Z,20.25
2023-05-19T18:41:20.277Z,20.21
2023-05-19T18:43:49.470Z,20.17
2023-05-19T18:46:18.924Z,20.13
2023-05-19T18:48:50.837Z,20.08
2023-05-19T18:51:21.499Z,20.03
2023-05-19T18:53:51.174Z,19.97
2023-05-19T18:56:27.923Z,19.90
2023-05-19T18:58:58.266Z,19.85
2023-05-19T19:01:27.689Z,19.79
2023-05-19T19:03:56.904Z,19.71
2023-05-19T19:06:26.272Z,19.64
2023-05-19T19:08:55.488Z,19.57
2023-05-19T19:11:24.999Z,19.50
2023-05-19T19:13:56.218Z,19.42
2023-05-19T19:16:25.540Z,19.33
2023-05-19T19:18:54.979Z,19.26
2023-05-19T19:21:24.848Z,19.19
2023-05-19T19:23:56.928Z,19.17
2023-05-19T19:26:29.270Z,19.14
2023-05-19T19:28:58.874Z,19.11
2023-05-19T19:31:31.246Z,19.07
2023-05-19T19:34:03.839Z,19.04
2023-05-19T19:36:33.411Z,19.03
2023-05-19T19:39:03.069Z,19.02
2023-05-19T19:41:33.558Z,19.00
2023-05-19T19:44:02.839Z,18.99
2023-05-19T19:46:32.340Z,18.97
2023-05-19T19:49:02.143Z,18.97
2023-05-19T19:51:31.887Z,18.97
2023-05-19T19:54:01.287Z,18.97
2023-05-19T19:56:30.746Z,18.97
2023-05-19T19:59:01.676Z,18.96
2023-05-19T20:01:31.223Z,18.94
2023-05-19T20:04:01.151Z,18.92
2023-05-19T20:06:31.225Z,18.91
2023-05-19T20:09:00.601Z,18.90
2023-05-19T20:11:30.957Z,18.89
2023-05-19T20:14:00.645Z,18.87
2023-05-19T20:16:30.104Z,18.85
2023-05-19T20:18:59.676Z,18.82
2023-05-19T20:21:29.472Z,18.78
2023-05-19T20:23:59.067Z,18.76
2023-05-19T20:26:29.516Z,18.73
2023-05-19T20:28:59.322Z,18.69
2023-05-19T20:31:28.812Z,18.67
2023-05-19T20:33:59.352Z,18.65
2023-05-19T20:36:30.386Z,18.63
2023-05-19T20:39:00.125Z,18.62
2023-05-19T20:41:29.601Z,18.59
2023-05-19T20:43:58.882Z,18.56
2023-05-19T20:46:28.781Z,18.53
2023-05-19T20:48:58.212Z,18.49
2023-05-19T20:51:27.505Z,18.43
2023-05-19T20:53:57.540Z,18.39
2023-05-19T20:56:26.987Z,18.35
2023-05-19T20:58:56.683Z,18.31
2023-05-19T21:01:26.400Z,18.29
2023-05-19T21:03:56.500Z,18.25
2023-05-19T21:06:25.944Z,18.20
2023-05-19T21:08:55.159Z,18.18
2023-05-19T21:11:24.701Z,18.16
2023-05-19T21:13:56.277Z,18.13
2023-05-19T21:16:26.439Z,18.10
2023-05-19T21:18:55.832Z,18.07
2023-05-19T21:21:26.805Z,18.05
2023-05-19T21:23:56.856Z,18.01
2023-05-19T21:26:26.972Z,17.98
2023-05-19T21:28:56.256Z,17.95
2023-05-19T21:31:25.839Z,17.91
2023-05-19T21:33:55.696Z,17.88
2023-05-19T21:36:25.197Z,17.84
2023-05-19T21:38:54.756Z,17.79
2023-05-19T21:41:24.287Z,17.72
2023-05-19T21:43:53.770Z,17.66
2023-05-19T21:46:23.259Z,17.59
2023-05-19T21:48:52.832Z,17.51
2023-05-19T21:51:22.117Z,17.43
2023-05-19T21:53:51.513Z,17.36
2023-05-19T21:56:21.259Z,17.27
2023-05-19T21:58:50.518Z,17.18
2023-05-19T22:01:19.728Z,17.08
2023-05-19T22:03:49.223Z,16.97
2023-05-19T22:06:18.528Z,16.87
2023-05-19T22:08:48.030Z,16.79
2023-05-19T22:11:18.187Z,16.70
2023-05-19T22:13:47.385Z,16.61
2023-05-19T22:16:16.817Z,16.52
2023-05-19T22:18:46.712Z,16.44
2023-05-19T22:21:16.167Z,16.37
2023-05-19T22:23:45.361Z,16.30
2023-05-19T22:26:14.563Z,16.24
2023-05-19T22:28:43.966Z,16.19
2023-05-19T22:31:13.370Z,16.14
2023-05-19T22:33:42.554Z,16.09
2023-05-19T22:36:11.695Z,16.02
2023-05-19T22:38:41.585Z,15.96
2023-05-19T22:41:11.398Z,15.88
2023-05-19T22:43:41.004Z,15.83
2023-05-19T22:46:10.539Z,15.77
2023-05-19T22:48:39.906Z,15.70
2023-05-19T22:51:09.132Z,15.63
2023-05-19T22:53:38.402Z,15.59
2023-05-19T22:56:07.942Z,15.54
2023-05-19T22:58:37.520Z,15.47
2023-05-19T23:01:06.879Z,15.40
2023-05-19T23:03:36.298Z,15.33
2023-05-19T23:06:05.933Z,15.28
2023-05-19T23:08:35.442Z,15.24
2023-05-19T23:11:05.054Z,15.20
2023-05-19T23:13:34.674Z,15.18
2023-05-19T23:16:06.756Z,15.15
2023-05-19T23:18:36.431Z,15.13
2023-05-19T23:21:06.860Z,15.12
2023-05-19T23:23:37.032Z,15.11
2023-05-19T23:26:07.404Z,15.09
2023-05-19T23:28:36.645Z,15.06
2023-05-19T23:31:06.362Z,15.04
2023-05-19T23:33:35.716Z,15.01
2023-05-19T23:36:10.495Z,14.97
2023-05-19T23:38:40.121Z,14.92
2023-05-19T23:41:09.465Z,14.87
2023-05-19T23:43:39.682Z,14.82
2023-05-19T23:46:09.527Z,14.77
2023-05-19T23:48:39.728Z,14.72
2023-05-19T23:51:09.327Z,14.68
2023-05-19T23:53:38.877Z,14.68
2023-05-19T23:56:08.859Z,14.67
2023-05-19T23:58:38.554Z,14.66
